Time;durP1;ratioP1;P1;durP2;ratioP2;P2;SDS_P1;SDS_P2;PMS_P1;PMS_P2;Temp;Humidity;BMP_temperature;BMP_pressure;BME280_temperature;BME280_humidity;BME280_pressure;Samples;Min_cycle;Max_cycle;Signal;HPM_P1;HPM_P2
2020/12/01 00:00:42;;;;;;;1.77;1.40;;;3.40;99.90;;;;;;5015396;28;20059;-66
2020/12/01 00:03:09;;;;;;;1.60;1.50;;;3.30;99.90;;;;;;5026447;28;20094;-67
2020/12/01 00:05:36;;;;;;;2.42;1.65;;;3.30;99.90;;;;;;5021409;28;20077;-70
2020/12/01 00:08:03;;;;;;;2.90;1.50;;;3.30;99.90;;;;;;5026917;28;20050;-66
2020/12/01 00:10:35;;;;;;;3.80;1.55;;;3.30;99.90;;;;;;5018441;28;20092;-68
2020/12/01 00:13:03;;;;;;;3.65;1.60;;;3.30;99.90;;;;;;5018784;28;20037;-64
2020/12/01 00:15:30;;;;;;;5.43;1.90;;;3.30;99.90;;;;;;5020383;28;20037;-67
2020/12/01 00:17:56;;;;;;;2.00;1.40;;;3.20;99.90;;;;;;5020051;28;20040;-68
2020/12/01 00:20:23;;;;;;;1.50;1.40;;;3.20;99.90;;;;;;5021142;28;20067;-66
2020/12/01 00:22:53;;;;;;;3.42;1.40;;;3.20;99.90;;;;;;5019333;28;20051;-70
2020/12/01 00:25:21;;;;;;;3.28;1.45;;;3.20;99.90;;;;;;5020881;28;20153;-68
2020/12/01 00:27:47;;;;;;;3.05;1.48;;;3.20;99.90;;;;;;5022597;28;20154;-65
2020/12/01 00:30:25;;;;;;;4.25;1.55;;;3.20;99.90;;;;;;5019825;28;20207;-68
2020/12/01 00:32:53;;;;;;;1.60;1.50;;;3.10;99.90;;;;;;5020523;28;20484;-62
2020/12/01 00:35:23;;;;;;;3.30;1.38;;;3.10;99.90;;;;;;5022652;28;20041;-66
2020/12/01 00:37:50;;;;;;;;;;;3.10;99.90;;;;;;5019617;28;20064;-66
2020/12/01 00:40:18;;;;;;;1.63;1.35;;;3.10;99.90;;;;;;5019487;28;19925;-69
2020/12/01 00:42:44;;;;;;;3.05;1.95;;;3.00;99.90;;;;;;5017945;28;20128;-66
2020/12/01 00:45:12;;;;;;;2.58;2.13;;;3.00;99.90;;;;;;5023940;28;20049;-66
2020/12/01 00:47:39;;;;;;;2.28;2.03;;;3.00;99.90;;;;;;5020247;28;20218;-65
2020/12/01 00:50:08;;;;;;;1.80;1.70;;;3.00;99.90;;;;;;5019135;28;20040;-65
2020/12/01 00:52:34;;;;;;;2.13;1.92;;;3.00;99.90;;;;;;5051196;28;20060;-66
2020/12/01 00:55:01;;;;;;;2.40;2.20;;;3.00;99.90;;;;;;5018584;28;20107;-68
2020/12/01 00:57:28;;;;;;;3.20;2.47;;;2.90;99.90;;;;;;5019667;28;21439;-65
2020/12/01 00:59:55;;;;;;;3.38;3.03;;;2.90;99.90;;;;;;5046832;28;20057;-63
2020/12/01 01:02:39;;;;;;;3.03;2.72;;;2.90;99.90;;;;;;5021540;28;20045;-66
2020/12/01 01:05:06;;;;;;;3.00;2.63;;;2.80;99.90;;;;;;5017855;28;20053;-63
2020/12/01 01:07:32;;;;;;;3.75;3.35;;;2.80;99.90;;;;;;5017954;28;20034;-70
2020/12/01 01:09:59;;;;;;;4.40;4.03;;;2.70;99.90;;;;;;5019134;28;20042;-70
2020/12/01 01:12:25;;;;;;;5.47;4.97;;;2.70;99.90;;;;;;5018370;28;20044;-65
2020/12/01 01:14:52;;;;;;;7.15;5.63;;;2.70;99.90;;;;;;5021372;28;20053;-62
2020/12/01 01:17:18;;;;;;;5.32;4.82;;;2.60;99.90;;;;;;5016754;28;20037;-69
2020/12/01 01:19:45;;;;;;;6.10;5.60;;;2.60;99.90;;;;;;5021401;28;20108;-70
2020/12/01 01:22:12;;;;;;;6.65;5.70;;;2.60;99.90;;;;;;5018354;28;20049;-68
2020/12/01 01:24:38;;;;;;;6.32;5.65;;;2.50;99.90;;;;;;5019502;28;20056;-67
2020/12/01 01:27:05;;;;;;;7.90;6.55;;;2.50;99.90;;;;;;5020585;28;20044;-66
2020/12/01 01:29:31;;;;;;;6.78;6.18;;;2.40;99.90;;;;;;5018586;28;20041;-70
2020/12/01 01:31:58;;;;;;;5.53;5.03;;;2.40;99.90;;;;;;5020444;28;20132;-65
2020/12/01 01:34:24;;;;;;;6.38;5.82;;;2.40;99.90;;;;;;5019462;28;20057;-69
2020/12/01 01:36:51;;;;;;;4.75;4.30;;;2.30;99.90;;;;;;5018843;28;20073;-65
2020/12/01 01:39:17;;;;;;;5.22;4.72;;;2.30;99.90;;;;;;5024128;28;20094;-65
2020/12/01 01:41:44;;;;;;;5.78;5.03;;;2.20;99.90;;;;;;5019438;28;20949;-64
2020/12/01 01:44:27;;;;;;;5.07;4.55;;;2.20;99.90;;;;;;5021568;28;20572;-66
2020/12/01 01:47:02;;;;;;;6.60;4.90;;;2.20;99.90;;;;;;5019961;28;20998;-65
2020/12/01 01:49:35;;;;;;;4.28;3.92;;;2.10;99.90;;;;;;5016975;28;20037;-66
2020/12/01 01:52:04;;;;;;;4.80;3.65;;;2.10;99.90;;;;;;5019417;28;20052;-65
2020/12/01 01:54:31;;;;;;;4.35;3.55;;;2.10;99.90;;;;;;5017792;28;20064;-64
2020/12/01 01:57:02;;;;;;;3.90;3.53;;;2.00;99.90;;;;;;5020791;28;21324;-70
2020/12/01 01:59:31;;;;;;;3.70;3.40;;;1.90;99.90;;;;;;5016518;28;20110;-62
2020/12/01 02:01:59;;;;;;;5.15;3.97;;;1.90;99.90;;;;;;5018492;28;20064;-70
2020/12/01 02:04:27;;;;;;;3.88;3.47;;;1.90;99.90;;;;;;5018428;28;20137;-63
2020/12/01 02:06:57;;;;;;;3.90;3.50;;;1.90;99.90;;;;;;5019629;28;20140;-65
2020/12/01 02:09:38;;;;;;;4.57;3.72;;;1.80;99.90;;;;;;5019733;28;20101;-67
2020/12/01 02:12:06;;;;;;;5.00;3.45;;;1.80;99.90;;;;;;5017373;28;20219;-69
2020/12/01 02:14:40;;;;;;;3.60;3.13;;;1.70;99.90;;;;;;5017572;28;20069;-66
2020/12/01 02:17:31;;;;;;;3.80;3.40;;;1.70;99.90;;;;;;5018473;28;20061;-68
2020/12/01 02:20:04;;;;;;;3.95;3.08;;;1.70;99.90;;;;;;5015281;28;20052;-70
2020/12/01 02:22:32;;;;;;;3.85;3.50;;;1.60;99.90;;;;;;5020797;28;20127;-70
2020/12/01 02:24:59;;;;;;;5.25;3.28;;;1.60;99.90;;;;;;5022939;28;20084;-67
2020/12/01 02:27:27;;;;;;;4.22;3.80;;;1.70;99.90;;;;;;5023403;28;20061;-63
2020/12/01 02:29:57;;;;;;;5.95;3.20;;;1.60;99.90;;;;;;5025253;28;20065;-64
2020/12/01 02:32:24;;;;;;;5.07;2.95;;;1.70;99.90;;;;;;5018206;28;20053;-65
2020/12/01 02:34:52;;;;;;;3.60;3.30;;;1.60;99.90;;;;;;5021804;28;21521;-67
2020/12/01 02:37:23;;;;;;;4.50;3.58;;;1.60;99.90;;;;;;5021588;28;20052;-66
2020/12/01 02:39:50;;;;;;;5.13;3.63;;;1.60;99.90;;;;;;5024867;28;20856;-68
2020/12/01 02:42:23;;;;;;;3.20;2.90;;;1.60;99.90;;;;;;5021189;28;20453;-64
2020/12/01 02:44:51;;;;;;;3.75;3.33;;;1.60;99.90;;;;;;5017337;28;20151;-70
2020/12/01 02:47:18;;;;;;;4.47;3.92;;;1.70;99.90;;;;;;5020829;28;20049;-65
2020/12/01 02:49:45;;;;;;;4.15;3.72;;;1.70;99.90;;;;;;5019709;28;20150;-67
2020/12/01 02:52:11;;;;;;;3.78;2.90;;;1.70;99.90;;;;;;5019334;28;20041;-68
2020/12/01 02:54:38;;;;;;;10.93;4.32;;;1.70;99.90;;;;;;5016938;28;20160;-69
2020/12/01 02:57:04;;;;;;;4.32;3.45;;;1.70;99.90;;;;;;5022108;28;20061;-70
2020/12/01 02:59:31;;;;;;;5.65;4.05;;;1.80;99.90;;;;;;5022421;28;20049;-65
2020/12/01 03:01:57;;;;;;;4.85;4.03;;;1.80;99.90;;;;;;5018975;28;20060;-66
2020/12/01 03:04:24;;;;;;;3.60;3.28;;;1.80;99.90;;;;;;5027081;28;20063;-66
2020/12/01 03:06:50;;;;;;;3.75;3.35;;;1.80;99.90;;;;;;5019007;28;20045;-69
2020/12/01 03:09:19;;;;;;;4.25;3.83;;;1.90;99.90;;;;;;5023289;28;20053;-67
2020/12/01 03:11:46;;;;;;;4.47;3.50;;;1.90;99.90;;;;;;5021884;28;20045;-68
2020/12/01 03:14:13;;;;;;;3.45;3.15;;;1.90;99.90;;;;;;5022725;28;20068;-65
2020/12/01 03:16:40;;;;;;;4.93;3.28;;;2.00;99.90;;;;;;5019725;28;20052;-69
2020/12/01 03:19:07;;;;;;;7.03;3.78;;;1.90;99.90;;;;;;5017315;28;20381;-70
2020/12/01 03:21:33;;;;;;;3.65;3.13;;;2.00;99.90;;;;;;5023159;28;20175;-70
2020/12/01 03:24:02;;;;;;;4.20;3.58;;;2.00;99.90;;;;;;5022879;28;20033;-64
2020/12/01 03:26:29;;;;;;;3.83;3.45;;;1.90;99.90;;;;;;5018594;28;21120;-68
2020/12/01 03:28:55;;;;;;;3.40;3.10;;;2.00;99.90;;;;;;5021238;28;20861;-68
2020/12/01 03:31:22;;;;;;;4.00;3.60;;;1.90;99.90;;;;;;5020330;28;20123;-69
2020/12/01 03:33:49;;;;;;;3.40;3.03;;;1.90;99.90;;;;;;5024465;28;21373;-68
2020/12/01 03:36:19;;;;;;;4.75;3.17;;;1.90;99.90;;;;;;5020174;28;20270;-67
2020/12/01 03:38:46;;;;;;;3.50;3.05;;;1.80;99.90;;;;;;5021144;28;20059;-68
2020/12/01 03:41:13;;;;;;;4.38;3.47;;;1.80;99.90;;;;;;5023194;28;20042;-65
2020/12/01 03:43:40;;;;;;;4.68;3.78;;;1.80;99.90;;;;;;5017389;28;20084;-70
2020/12/01 03:46:07;;;;;;;5.13;4.63;;;1.80;99.90;;;;;;5022605;28;20853;-68
2020/12/01 03:48:34;;;;;;;3.88;3.42;;;1.80;99.90;;;;;;5020747;28;20064;-70
2020/12/01 03:51:00;;;;;;;4.00;3.50;;;1.70;99.90;;;;;;5018881;28;20152;-70
2020/12/01 03:53:27;;;;;;;5.78;3.83;;;1.70;99.90;;;;;;5021350;28;20037;-65
2020/12/01 03:55:54;;;;;;;4.90;3.85;;;1.70;99.90;;;;;;5022478;28;20068;-65
2020/12/01 03:58:20;;;;;;;6.28;4.15;;;1.70;99.90;;;;;;5018970;28;20053;-67
2020/12/01 04:00:47;;;;;;;7.25;4.10;;;1.60;99.90;;;;;;5022799;28;20230;-70
2020/12/01 04:03:13;;;;;;;4.28;3.17;;;1.60;99.90;;;;;;5019741;28;20062;-66
2020/12/01 04:05:40;;;;;;;4.63;4.18;;;1.60;99.90;;;;;;5021174;28;20247;-65
2020/12/01 04:08:08;;;;;;;4.00;3.47;;;1.60;99.90;;;;;;5023513;28;20183;-65
2020/12/01 04:10:35;;;;;;;5.05;4.38;;;1.60;99.90;;;;;;5018588;28;20480;-68
2020/12/01 04:13:02;;;;;;;4.22;3.78;;;1.60;99.90;;;;;;5024171;28;20041;-66
2020/12/01 04:15:29;;;;;;;5.43;3.80;;;1.60;99.90;;;;;;5021204;28;20130;-65
2020/12/01 04:17:55;;;;;;;4.95;3.90;;;1.60;99.90;;;;;;5024199;28;20053;-66
2020/12/01 04:20:21;;;;;;;5.28;4.68;;;1.60;99.90;;;;;;5017774;28;20211;-69
2020/12/01 04:22:49;;;;;;;6.03;4.45;;;1.60;99.90;;;;;;5019974;28;20059;-68
2020/12/01 04:25:19;;;;;;;5.22;4.47;;;1.60;99.90;;;;;;5024431;28;20130;-69
2020/12/01 04:27:46;;;;;;;5.15;3.58;;;1.60;99.90;;;;;;5018469;28;20704;-69
2020/12/01 04:30:15;;;;;;;6.05;4.25;;;1.60;99.90;;;;;;5020160;28;20041;-68
2020/12/01 04:32:42;;;;;;;4.53;3.67;;;1.60;99.90;;;;;;5018402;28;20789;-64
2020/12/01 04:35:09;;;;;;;5.07;4.57;;;1.60;99.90;;;;;;5019466;28;20045;-62
2020/12/01 04:37:36;;;;;;;6.97;3.60;;;1.60;99.90;;;;;;5023611;28;20230;-65
2020/12/01 04:40:06;;;;;;;5.07;3.92;;;1.70;99.90;;;;;;5019418;28;20098;-64
2020/12/01 04:42:35;;;;;;;5.82;3.88;;;1.70;99.90;;;;;;5017088;28;20507;-65
2020/12/01 04:45:09;;;;;;;5.10;4.15;;;1.70;99.90;;;;;;5021072;28;20160;-65
2020/12/01 04:47:54;;;;;;;4.18;3.78;;;1.70;99.90;;;;;;5021312;28;20668;-67
2020/12/01 04:50:29;;;;;;;5.30;4.20;;;1.60;99.90;;;;;;5019973;28;20072;-66
2020/12/01 04:53:08;;;;;;;5.88;3.75;;;1.70;99.90;;;;;;5017941;28;20422;-65
2020/12/01 04:55:40;;;;;;;4.57;3.42;;;1.60;99.90;;;;;;5019010;28;20503;-66
2020/12/01 04:58:28;;;;;;;6.85;3.85;;;1.70;99.90;;;;;;5021199;28;20470;-64
2020/12/01 05:01:18;;;;;;;6.53;4.47;;;1.60;99.90;;;;;;4994492;28;20196;-70
2020/12/01 05:04:06;;;;;;;5.15;4.53;;;1.70;99.90;;;;;;4997836;28;20057;-66
2020/12/01 05:06:57;;;;;;;6.03;4.68;;;1.60;99.90;;;;;;5000938;28;20354;-63
2020/12/01 05:09:39;;;;;;;5.60;5.00;;;1.70;99.90;;;;;;4999104;28;20052;-68
2020/12/01 05:12:34;;;;;;;6.55;4.35;;;1.60;99.90;;;;;;5002442;28;20712;-68
2020/12/01 05:15:24;;;;;;;6.85;5.07;;;1.60;99.90;;;;;;5022572;28;20049;-65
2020/12/01 05:17:55;;;;;;;7.43;6.70;;;1.60;99.90;;;;;;5019036;28;20060;-65
2020/12/01 05:20:22;;;;;;;7.38;5.95;;;1.60;99.90;;;;;;5016845;28;20523;-70
2020/12/01 05:22:52;;;;;;;9.75;5.50;;;1.60;99.90;;;;;;5015796;28;20390;-66
2020/12/01 05:25:27;;;;;;;9.20;5.35;;;1.50;99.90;;;;;;5019790;28;20056;-69
2020/12/01 05:28:17;;;;;;;6.53;5.72;;;1.50;99.90;;;;;;5006147;28;20099;-70
2020/12/01 05:30:44;;;;;;;6.55;4.82;;;1.50;99.90;;;;;;5014825;28;20093;-70
2020/12/01 05:33:20;;;;;;;5.82;5.18;;;1.50;99.90;;;;;;5019653;28;20103;-65
2020/12/01 05:36:15;;;;;;;9.27;5.90;;;1.50;99.90;;;;;;5019376;28;20467;-66
2020/12/01 05:38:42;;;;;;;6.95;5.20;;;1.60;99.90;;;;;;5012678;28;20056;-65
2020/12/01 05:41:33;;;;;;;6.30;5.30;;;1.50;99.90;;;;;;5022338;28;20049;-69
2020/12/01 05:44:22;;;;;;;5.95;5.22;;;1.60;99.90;;;;;;5017961;28;20041;-66
2020/12/01 05:47:09;;;;;;;10.70;6.70;;;1.60;99.90;;;;;;5017054;28;20049;-66
2020/12/01 05:49:38;;;;;;;6.88;5.70;;;1.60;99.90;;;;;;5017716;28;20045;-65
2020/12/01 05:52:05;;;;;;;10.35;6.55;;;1.70;99.90;;;;;;5016667;28;20555;-68
2020/12/01 05:54:37;;;;;;;8.98;6.10;;;1.70;99.90;;;;;;5018435;28;20075;-70
2020/12/01 05:57:24;;;;;;;7.47;5.63;;;1.70;99.90;;;;;;5015132;28;20068;-64
2020/12/01 05:59:56;;;;;;;8.13;6.38;;;1.80;99.90;;;;;;5014951;28;20049;-65
2020/12/01 06:02:38;;;;;;;9.50;7.05;;;1.80;99.90;;;;;;5011917;28;20044;-70
2020/12/01 06:05:12;;;;;;;8.45;6.57;;;1.80;99.90;;;;;;5015863;28;20246;-69
2020/12/01 06:07:46;;;;;;;7.35;6.20;;;1.80;99.90;;;;;;5017104;28;20446;-70
2020/12/01 06:10:17;;;;;;;18.42;7.28;;;1.80;99.90;;;;;;5006343;28;20045;-77
2020/12/01 06:13:08;;;;;;;9.07;7.20;;;1.80;99.90;;;;;;5014147;28;20059;-66
2020/12/01 06:15:40;;;;;;;8.25;6.28;;;1.80;99.90;;;;;;5023293;28;20543;-69
2020/12/01 06:18:17;;;;;;;8.85;7.22;;;1.70;99.90;;;;;;5017633;28;20118;-75
2020/12/01 06:20:54;;;;;;;11.80;7.05;;;1.70;99.90;;;;;;5017412;28;20053;-68
2020/12/01 06:23:41;;;;;;;9.02;6.85;;;1.60;99.90;;;;;;5021110;28;20155;-70
2020/12/01 06:26:45;;;;;;;7.03;6.00;;;1.60;99.90;;;;;;5021226;28;20052;-69
2020/12/01 06:29:17;;;;;;;12.57;7.47;;;1.50;99.90;;;;;;5023226;28;20057;-67
2020/12/01 06:32:16;;;;;;;8.90;7.65;;;1.50;99.90;;;;;;5019696;28;20137;-70
2020/12/01 06:35:18;;;;;;;14.65;8.77;;;1.40;99.90;;;;;;5018661;28;20052;-67
2020/12/01 06:38:39;;;;;;;11.88;8.20;;;1.40;99.90;;;;;;5021074;28;20053;-74
2020/12/01 06:41:24;;;;;;;12.52;8.55;;;1.40;99.90;;;;;;4946885;28;20198;-69
2020/12/01 06:43:57;;;;;;;11.02;7.65;;;1.40;99.90;;;;;;5020802;28;20156;-70
2020/12/01 06:46:37;;;;;;;20.80;9.27;;;1.40;99.90;;;;;;5015952;28;20113;-70
2020/12/01 06:49:10;;;;;;;26.25;11.68;;;1.30;99.90;;;;;;5020274;28;20110;-68
2020/12/01 06:51:38;;;;;;;13.93;7.85;;;1.30;99.90;;;;;;5020277;28;20125;-75
2020/12/01 06:54:12;;;;;;;19.10;9.07;;;1.30;99.90;;;;;;5026323;28;20056;-71
2020/12/01 06:56:39;;;;;;;23.13;8.80;;;1.20;99.90;;;;;;5018049;28;20040;-72
2020/12/01 06:59:12;;;;;;;19.73;8.90;;;1.30;99.90;;;;;;5019916;28;20048;-66
2020/12/01 07:01:40;;;;;;;15.60;8.55;;;1.20;99.90;;;;;;5024351;28;20300;-75
2020/12/01 07:04:12;;;;;;;13.15;7.18;;;1.20;99.90;;;;;;5023017;28;20033;-70
2020/12/01 07:06:48;;;;;;;11.23;8.20;;;1.30;99.90;;;;;;5016166;28;20474;-71
2020/12/01 07:09:24;;;;;;;13.38;10.30;;;1.30;99.90;;;;;;5020607;28;20443;-67
2020/12/01 07:12:08;;;;;;;15.52;9.18;;;1.30;99.90;;;;;;5023169;28;20053;-73
2020/12/01 07:14:41;;;;;;;13.23;7.55;;;1.30;99.90;;;;;;5029404;28;20189;-66
2020/12/01 07:17:20;;;;;;;11.52;7.13;;;1.30;99.90;;;;;;5023285;28;20495;-70
2020/12/01 07:19:54;;;;;;;12.90;7.68;;;1.30;99.90;;;;;;5023365;28;20048;-69
2020/12/01 07:22:50;;;;;;;12.02;8.23;;;1.30;99.90;;;;;;5016243;28;20061;-67
2020/12/01 07:25:30;;;;;;;17.50;8.65;;;1.30;99.90;;;;;;5022583;28;20436;-66
2020/12/01 07:28:27;;;;;;;18.42;9.85;;;1.30;99.90;;;;;;5022618;28;20079;-73
2020/12/01 07:30:59;;;;;;;16.00;10.35;;;1.40;99.90;;;;;;5019872;28;20092;-73
2020/12/01 07:33:33;;;;;;;19.08;9.30;;;1.30;99.90;;;;;;5021469;28;20211;-70
2020/12/01 07:36:22;;;;;;;13.32;8.77;;;1.40;99.90;;;;;;5025277;28;20107;-65
2020/12/01 07:39:06;;;;;;;15.68;7.80;;;1.30;99.90;;;;;;5020379;28;20065;-66
2020/12/01 07:41:33;;;;;;;14.00;7.90;;;1.30;99.90;;;;;;5020013;28;21019;-67
2020/12/01 07:44:11;;;;;;;15.20;9.05;;;1.30;99.90;;;;;;5025166;28;20320;-66
2020/12/01 07:49:22;;;;;;;16.38;10.88;;;1.30;99.90;;;;;;5026098;28;20052;-70
2020/12/01 07:51:54;;;;;;;19.88;9.23;;;1.30;99.90;;;;;;5021487;28;20046;-69
2020/12/01 07:54:24;;;;;;;17.17;9.57;;;1.30;99.90;;;;;;5020145;28;20072;-68
2020/12/01 07:56:51;;;;;;;19.13;11.25;;;1.30;99.90;;;;;;5026988;28;20056;-67
2020/12/01 07:59:17;;;;;;;15.75;9.77;;;1.30;99.90;;;;;;5024280;28;20120;-67
2020/12/01 08:01:45;;;;;;;28.42;13.65;;;1.20;99.90;;;;;;5022360;28;20096;-76
2020/12/01 08:04:18;;;;;;;19.83;12.23;;;1.20;99.90;;;;;;5023209;28;20132;-70
2020/12/01 08:06:56;;;;;;;19.27;10.30;;;1.20;99.90;;;;;;5016710;28;20052;-75
2020/12/01 08:09:24;;;;;;;13.38;8.63;;;1.20;99.90;;;;;;5029840;28;20052;-68
2020/12/01 08:11:54;;;;;;;15.95;9.52;;;1.20;99.90;;;;;;5018780;28;20156;-71
2020/12/01 08:14:21;;;;;;;11.80;8.52;;;1.20;99.90;;;;;;5023718;28;20049;-71
2020/12/01 08:17:28;;;;;;;12.75;8.70;;;1.20;99.90;;;;;;5023091;28;20060;-67
2020/12/01 08:19:56;;;;;;;13.85;9.38;;;1.20;99.90;;;;;;4987303;28;20066;-74
2020/12/01 08:22:38;;;;;;;14.10;9.35;;;1.20;99.90;;;;;;4989178;28;20076;-69
2020/12/01 08:25:12;;;;;;;14.43;8.65;;;1.20;99.90;;;;;;5013155;28;20473;-70
2020/12/01 08:27:57;;;;;;;19.73;11.05;;;1.20;99.90;;;;;;5023698;28;20410;-67
2020/12/01 08:30:49;;;;;;;16.40;9.55;;;1.20;99.90;;;;;;5025029;28;20095;-69
2020/12/01 08:33:47;;;;;;;12.38;9.35;;;1.30;99.90;;;;;;5021560;28;20149;-65
2020/12/01 08:36:28;;;;;;;17.75;10.70;;;1.30;99.90;;;;;;5020297;28;20048;-68
2020/12/01 08:39:13;;;;;;;22.17;10.40;;;1.40;99.90;;;;;;5016144;28;20167;-66
2020/12/01 08:41:58;;;;;;;16.25;9.90;;;1.40;99.90;;;;;;5020222;28;20072;-66
2020/12/01 08:44:38;;;;;;;14.02;9.82;;;1.40;99.90;;;;;;5015571;28;20040;-66
2020/12/01 08:47:06;;;;;;;18.05;11.27;;;1.50;99.90;;;;;;5021794;28;20038;-65
2020/12/01 08:49:45;;;;;;;16.20;12.20;;;1.50;99.90;;;;;;5017220;28;20053;-69
2020/12/01 08:52:32;;;;;;;23.13;12.13;;;1.60;99.90;;;;;;5019309;28;20055;-65
2020/12/01 08:55:34;;;;;;;24.48;13.30;;;1.70;99.90;;;;;;5016934;28;20127;-63
2020/12/01 08:58:13;;;;;;;22.33;13.85;;;1.80;99.90;;;;;;5019713;28;20797;-69
2020/12/01 09:01:01;;;;;;;17.80;12.07;;;1.80;99.90;;;;;;5017267;28;20650;-69
2020/12/01 09:03:31;;;;;;;19.00;14.05;;;1.90;99.90;;;;;;5017902;28;20102;-64
2020/12/01 09:06:01;;;;;;;23.85;12.63;;;2.00;99.90;;;;;;5018710;28;20040;-70
2020/12/01 09:08:41;;;;;;;17.30;11.63;;;2.00;99.90;;;;;;5018243;28;20409;-68
2020/12/01 09:17:20;;;;;;;14.65;10.88;;;2.20;99.90;;;;;;5018549;28;20436;-67
2020/12/01 09:19:59;;;;;;;17.33;11.95;;;2.30;99.90;;;;;;5011464;28;20784;-68
2020/12/01 09:22:32;;;;;;;19.77;12.23;;;2.30;99.90;;;;;;5019932;28;20044;-68
2020/12/01 09:25:13;;;;;;;;;;;2.30;99.90;;;;;;5022977;28;20044;-69
2020/12/01 09:27:40;;;;;;;13.65;9.35;;;2.40;99.90;;;;;;5022916;28;19925;-67
2020/12/01 09:30:35;;;;;;;15.93;11.43;;;2.40;99.90;;;;;;5025240;28;20401;-72
2020/12/01 09:33:05;;;;;;;16.05;11.15;;;2.40;99.90;;;;;;5021536;28;20069;-71
2020/12/01 09:35:31;;;;;;;20.23;11.20;;;2.40;99.90;;;;;;5017508;28;20568;-72
2020/12/01 09:37:58;;;;;;;14.57;9.80;;;2.50;99.90;;;;;;5024886;28;20445;-67
2020/12/01 09:40:26;;;;;;;14.40;10.48;;;2.50;99.90;;;;;;5019776;28;20095;-66
2020/12/01 09:42:57;;;;;;;15.20;11.30;;;2.50;99.90;;;;;;5023787;28;20400;-71
2020/12/01 09:45:27;;;;;;;14.75;9.40;;;2.50;99.90;;;;;;5021135;28;20052;-67
2020/12/01 09:48:41;;;;;;;14.02;8.93;;;2.60;99.90;;;;;;5020061;28;20527;-68
2020/12/01 09:50:40;;;;;;;13.77;10.10;;;2.60;99.90;;;;;;5010151;28;20867;-69
2020/12/01 09:53:25;;;;;;;13.45;9.40;;;2.70;99.90;;;;;;5018562;28;20090;-65
2020/12/01 10:09:40;;;;;;;13.35;10.85;;;3.00;99.90;;;;;;5019792;28;20072;-70
2020/12/01 10:35:38;;;;;;;18.55;15.40;;;3.30;99.90;;;;;;5020497;28;20148;-69
2020/12/01 10:38:04;;;;;;;19.83;14.10;;;3.30;99.90;;;;;;5015313;28;20095;-71
2020/12/01 10:40:31;;;;;;;18.38;13.23;;;3.40;99.90;;;;;;5022312;28;20095;-68
2020/12/01 10:42:57;;;;;;;15.77;10.68;;;3.40;99.90;;;;;;5019706;28;20119;-65
2020/12/01 10:45:26;;;;;;;14.45;10.38;;;3.40;99.90;;;;;;5023998;28;20045;-67
2020/12/01 10:47:53;;;;;;;11.43;9.40;;;3.40;99.90;;;;;;5021257;28;20156;-67
2020/12/01 10:50:24;;;;;;;11.63;7.60;;;3.50;99.90;;;;;;5027948;28;20132;-67
2020/12/01 10:52:51;;;;;;;9.50;5.80;;;3.50;99.90;;;;;;5020894;28;20064;-70
2020/12/01 10:55:22;;;;;;;13.95;6.43;;;3.50;99.90;;;;;;5024943;28;20037;-65
2020/12/01 10:57:50;;;;;;;9.15;6.15;;;3.60;99.90;;;;;;5026847;28;20132;-69
2020/12/01 11:00:18;;;;;;;8.55;6.05;;;3.60;99.90;;;;;;5020271;28;20447;-73
2020/12/01 11:02:45;;;;;;;8.70;5.88;;;3.60;99.90;;;;;;5022692;28;20045;-65
2020/12/01 11:05:20;;;;;;;8.35;6.15;;;3.60;99.90;;;;;;5052482;28;20049;-66
2020/12/01 11:07:47;;;;;;;9.13;6.88;;;3.60;99.90;;;;;;5021217;28;20653;-73
2020/12/01 11:10:13;;;;;;;11.82;7.80;;;3.60;99.90;;;;;;5025098;28;21038;-67
2020/12/01 11:12:40;;;;;;;9.05;6.95;;;3.70;99.90;;;;;;5023598;28;20045;-72
2020/12/01 11:15:07;;;;;;;9.13;7.28;;;3.60;99.90;;;;;;5026842;28;20123;-67
2020/12/01 11:17:33;;;;;;;12.38;9.32;;;3.70;99.90;;;;;;5018301;28;20049;-67
2020/12/01 11:20:00;;;;;;;16.05;9.05;;;3.70;99.90;;;;;;5024392;28;20144;-69
2020/12/01 11:22:26;;;;;;;15.95;10.18;;;3.70;99.90;;;;;;5020125;28;20049;-66
2020/12/01 11:24:53;;;;;;;12.05;10.20;;;3.70;99.90;;;;;;5022230;28;20057;-68
2020/12/01 11:27:19;;;;;;;13.45;9.15;;;3.80;99.90;;;;;;5024853;28;20503;-68
2020/12/01 11:29:46;;;;;;;12.10;8.95;;;3.80;99.90;;;;;;5027219;28;20493;-70
2020/12/01 11:32:12;;;;;;;16.02;9.10;;;3.80;99.90;;;;;;5029519;28;20053;-68
2020/12/01 11:34:39;;;;;;;10.95;8.63;;;3.80;99.90;;;;;;5022243;28;20072;-66
2020/12/01 11:37:05;;;;;;;12.20;8.95;;;3.80;99.90;;;;;;5024152;28;20108;-73
2020/12/01 11:39:31;;;;;;;11.65;7.97;;;3.90;99.90;;;;;;5025539;28;20134;-69
2020/12/01 11:41:58;;;;;;;12.63;9.27;;;3.90;99.90;;;;;;5026680;28;20045;-71
2020/12/01 11:44:25;;;;;;;10.93;9.10;;;4.00;99.90;;;;;;5026803;28;20045;-68
2020/12/01 11:46:51;;;;;;;11.38;8.07;;;4.00;99.90;;;;;;5026044;28;20121;-68
2020/12/01 11:49:18;;;;;;;11.57;8.48;;;4.00;99.90;;;;;;5025087;28;20138;-70
2020/12/01 11:51:48;;;;;;;11.05;7.63;;;4.00;99.90;;;;;;5023928;28;20045;-62
2020/12/01 11:54:15;;;;;;;9.27;8.13;;;4.10;99.90;;;;;;5024304;28;20056;-67
2020/12/01 11:56:42;;;;;;;9.10;7.15;;;4.10;99.90;;;;;;5030267;28;20064;-68
2020/12/01 11:59:08;;;;;;;11.68;5.82;;;4.10;99.90;;;;;;5027300;28;20049;-67
2020/12/01 12:01:35;;;;;;;8.65;5.82;;;4.10;99.90;;;;;;5026569;28;20045;-65
2020/12/01 12:04:03;;;;;;;7.15;6.07;;;4.10;99.90;;;;;;5036363;28;20148;-70
2020/12/01 12:06:30;;;;;;;9.18;5.10;;;4.10;99.90;;;;;;5022212;28;20582;-72
2020/12/01 12:08:57;;;;;;;9.65;5.45;;;4.10;99.90;;;;;;5025612;28;20101;-66
2020/12/01 12:11:23;;;;;;;9.85;5.70;;;4.20;99.90;;;;;;5026533;28;20501;-64
2020/12/01 12:13:50;;;;;;;5.75;4.78;;;4.20;99.90;;;;;;5025410;28;20088;-67
2020/12/01 12:16:18;;;;;;;6.05;4.70;;;4.20;99.90;;;;;;5020382;28;20123;-68
2020/12/01 12:18:45;;;;;;;6.40;4.13;;;4.20;99.90;;;;;;5018850;28;20063;-63
2020/12/01 12:21:12;;;;;;;5.57;3.75;;;4.20;99.90;;;;;;5019216;28;20059;-69
2020/12/01 12:23:39;;;;;;;9.02;4.95;;;4.20;99.90;;;;;;5022229;28;20059;-71
2020/12/01 12:26:06;;;;;;;6.25;4.50;;;4.20;99.90;;;;;;5021151;28;20136;-69
2020/12/01 12:28:33;;;;;;;6.20;5.00;;;4.20;99.90;;;;;;5019265;28;20037;-65
2020/12/01 12:31:01;;;;;;;6.15;4.15;;;4.20;99.90;;;;;;5020390;28;20133;-72
2020/12/01 12:33:29;;;;;;;6.53;4.72;;;4.20;99.90;;;;;;5020111;28;20060;-69
2020/12/01 12:35:57;;;;;;;6.80;4.68;;;4.20;99.90;;;;;;5026525;28;20076;-65
2020/12/01 12:38:24;;;;;;;8.20;4.60;;;4.20;99.90;;;;;;5019723;28;20052;-66
2020/12/01 12:40:51;;;;;;;6.88;5.25;;;4.10;99.90;;;;;;5028032;28;20053;-69
2020/12/01 12:43:19;;;;;;;8.60;5.60;;;4.10;99.90;;;;;;5020324;28;20052;-70
2020/12/01 12:45:47;;;;;;;7.88;6.45;;;4.10;99.90;;;;;;5021913;28;20556;-68
2020/12/01 12:48:14;;;;;;;7.88;6.50;;;4.10;99.90;;;;;;5018023;28;20274;-69
2020/12/01 12:50:40;;;;;;;8.32;5.47;;;4.00;99.90;;;;;;5017178;28;20049;-73
2020/12/01 12:53:07;;;;;;;8.93;5.68;;;4.00;99.90;;;;;;5024765;28;20572;-66
2020/12/01 12:55:34;;;;;;;9.43;5.88;;;4.00;99.90;;;;;;5023182;28;20053;-67
2020/12/01 12:58:00;;;;;;;10.10;6.28;;;4.00;99.90;;;;;;5023363;28;20164;-68
2020/12/01 13:00:28;;;;;;;7.28;6.32;;;4.00;99.90;;;;;;5018511;28;20040;-69
2020/12/01 13:02:55;;;;;;;9.65;6.30;;;4.00;99.90;;;;;;5024571;28;20139;-66
2020/12/01 13:05:22;;;;;;;8.80;7.05;;;4.00;99.90;;;;;;5024547;28;20096;-73
2020/12/01 13:07:54;;;;;;;10.18;7.35;;;4.00;99.90;;;;;;5015600;28;20420;-69
2020/12/01 13:10:21;;;;;;;10.07;6.18;;;3.90;99.90;;;;;;5021233;28;20419;-64
2020/12/01 13:12:48;;;;;;;15.10;7.07;;;3.90;99.90;;;;;;5016989;28;20061;-67
2020/12/01 13:15:16;;;;;;;9.13;6.30;;;3.90;99.90;;;;;;5026678;28;20396;-67
2020/12/01 13:17:44;;;;;;;9.60;6.18;;;3.90;99.90;;;;;;5020687;28;20037;-75
2020/12/01 13:20:17;;;;;;;9.45;8.35;;;3.90;99.90;;;;;;5022979;28;20082;-68
2020/12/01 13:22:43;;;;;;;10.88;7.40;;;3.90;99.90;;;;;;5021687;28;20040;-69
2020/12/01 13:25:10;;;;;;;9.55;6.90;;;3.90;99.90;;;;;;5021249;28;20046;-66
2020/12/01 13:27:37;;;;;;;8.77;7.20;;;3.90;99.90;;;;;;5031627;28;20056;-66
2020/12/01 13:30:06;;;;;;;8.98;6.88;;;3.80;99.90;;;;;;5020060;28;20036;-68
2020/12/01 13:32:33;;;;;;;12.25;6.78;;;3.90;99.90;;;;;;5020871;28;20448;-68
2020/12/01 13:34:59;;;;;;;13.90;8.05;;;3.80;99.90;;;;;;5019864;28;20534;-66
2020/12/01 13:37:26;;;;;;;12.82;8.77;;;3.80;99.90;;;;;;5020523;28;21114;-68
2020/12/01 13:39:53;;;;;;;8.95;7.30;;;3.90;99.90;;;;;;5026953;28;20056;-68
2020/12/01 13:42:19;;;;;;;9.80;7.93;;;3.80;99.90;;;;;;5017976;28;20057;-71
2020/12/01 13:44:46;;;;;;;9.95;7.90;;;3.80;99.90;;;;;;5016454;28;20048;-69
2020/12/01 13:47:13;;;;;;;11.30;9.38;;;3.80;99.90;;;;;;5018929;28;20586;-69
2020/12/01 13:49:39;;;;;;;12.77;7.82;;;3.80;99.90;;;;;;5019882;28;20068;-77
2020/12/01 13:52:06;;;;;;;13.15;8.90;;;3.80;99.90;;;;;;5019517;28;20559;-69
2020/12/01 13:54:32;;;;;;;9.80;8.02;;;3.80;99.90;;;;;;5017060;28;20053;-76
2020/12/01 13:56:59;;;;;;;13.65;8.50;;;3.80;99.90;;;;;;5020655;28;20073;-68
2020/12/01 13:59:26;;;;;;;10.68;8.73;;;3.80;99.90;;;;;;5016949;28;20077;-64
2020/12/01 14:01:57;;;;;;;14.73;8.70;;;3.80;99.90;;;;;;5020931;28;20512;-65